createdAt,value
2017-09-17T00:01:31.957Z,7.77
2017-09-17T00:06:35.175Z,8.97
2017-09-17T00:11:38.371Z,9.00
2017-09-17T00:16:41.577Z,8.90
2017-09-17T00:21:44.912Z,11.40
2017-09-17T00:26:48.134Z,10.93
2017-09-17T00:31:51.355Z,10.10
2017-09-17T00:36:55.293Z,10.30
2017-09-17T00:41:58.517Z,10.17
2017-09-17T00:47:02.072Z,9.17
2017-09-17T00:52:05.236Z,8.67
2017-09-17T00:57:08.864Z,9.95
2017-09-17T01:02:12.058Z,10.70
2017-09-17T01:07:15.272Z,8.70
2017-09-17T01:12:18.612Z,10.17
2017-09-17T01:17:21.845Z,11.00
2017-09-17T01:22:25.800Z,10.40
2017-09-17T01:27:29.001Z,8.23
2017-09-17T01:32:32.191Z,9.30
2017-09-17T01:37:36.185Z,10.00
2017-09-17T01:42:39.391Z,9.77
2017-09-17T01:47:42.596Z,11.27
2017-09-17T01:52:45.762Z,10.63
2017-09-17T01:57:48.981Z,11.10
2017-09-17T02:02:52.299Z,11.37
2017-09-17T02:07:55.525Z,10.90
2017-09-17T02:12:58.726Z,10.53
2017-09-17T02:18:01.966Z,11.27
2017-09-17T02:23:05.928Z,13.20
2017-09-17T02:28:09.147Z,11.40
2017-09-17T02:33:12.354Z,13.83
2017-09-17T02:38:15.567Z,13.47
2017-09-17T02:43:18.801Z,13.80
2017-09-17T02:48:21.998Z,14.00
2017-09-17T02:53:25.437Z,14.70
2017-09-17T02:58:28.672Z,13.40
2017-09-17T03:03:31.891Z,12.70
2017-09-17T03:08:35.089Z,12.55
2017-09-17T03:13:38.303Z,12.17
2017-09-17T03:18:41.498Z,12.80
2017-09-17T03:23:44.712Z,11.43
2017-09-17T03:28:47.928Z,12.80
2017-09-17T03:33:51.137Z,13.17
2017-09-17T03:38:54.332Z,14.03
2017-09-17T03:43:57.550Z,13.90
2017-09-17T03:49:00.813Z,12.88
2017-09-17T03:54:04.769Z,12.50
2017-09-17T03:59:08.012Z,12.73
2017-09-17T04:04:11.234Z,12.90
2017-09-17T04:09:15.201Z,12.90
2017-09-17T04:14:18.485Z,12.57
2017-09-17T04:19:22.595Z,13.03
2017-09-17T04:24:26.579Z,12.33
2017-09-17T04:29:29.824Z,13.37
2017-09-17T04:34:33.033Z,11.57
2017-09-17T04:39:36.193Z,12.93
2017-09-17T04:44:39.421Z,12.50
2017-09-17T04:49:42.642Z,13.10
2017-09-17T04:54:45.862Z,11.80
2017-09-17T04:59:49.848Z,12.60
2017-09-17T05:04:54.336Z,12.13
2017-09-17T05:09:58.311Z,12.13
2017-09-17T05:15:01.526Z,14.40
2017-09-17T05:20:04.770Z,14.57
2017-09-17T05:25:08.742Z,15.70
2017-09-17T05:30:11.960Z,13.90
2017-09-17T05:35:15.168Z,14.20
2017-09-17T05:40:18.374Z,14.20
2017-09-17T05:45:21.603Z,15.10
2017-09-17T05:50:24.794Z,14.17
2017-09-17T05:55:27.990Z,14.40
2017-09-17T06:00:31.222Z,15.00
2017-09-17T06:05:34.421Z,16.43
2017-09-17T06:10:37.824Z,15.07
2017-09-17T06:15:41.054Z,15.30
2017-09-17T06:20:45.037Z,16.27
2017-09-17T06:25:48.267Z,17.37
2017-09-17T06:30:51.485Z,18.30
2017-09-17T06:35:54.678Z,17.53
2017-09-17T06:40:57.890Z,14.82
2017-09-17T06:46:01.101Z,15.63
2017-09-17T06:51:04.333Z,17.43
2017-09-17T06:56:07.551Z,16.73
2017-09-17T07:01:10.817Z,20.30
2017-09-17T07:06:14.048Z,21.23
2017-09-17T07:11:18.026Z,21.20
2017-09-17T07:16:21.249Z,20.07
2017-09-17T07:21:24.511Z,19.80
2017-09-17T07:26:27.737Z,21.43
2017-09-17T07:31:30.928Z,19.60
2017-09-17T07:36:34.169Z,21.73
2017-09-17T07:41:37.404Z,21.33
2017-09-17T07:46:41.398Z,19.30
2017-09-17T07:51:44.701Z,21.50
2017-09-17T07:56:47.907Z,22.40
2017-09-17T08:01:51.123Z,25.27
2017-09-17T08:06:54.317Z,21.97
2017-09-17T08:11:57.520Z,22.70
2017-09-17T08:17:00.727Z,22.43
2017-09-17T08:22:03.956Z,19.73
2017-09-17T08:27:07.378Z,20.43
2017-09-17T08:32:10.597Z,18.80
2017-09-17T08:37:14.613Z,20.10
2017-09-17T08:42:17.858Z,19.40
2017-09-17T08:47:21.082Z,19.70
2017-09-17T08:52:24.292Z,17.13
2017-09-17T08:57:27.525Z,16.10
2017-09-17T09:02:30.738Z,18.37
2017-09-17T09:07:33.997Z,17.53
2017-09-17T09:12:37.228Z,17.50
2017-09-17T09:17:40.417Z,16.93
2017-09-17T09:22:43.696Z,14.87
2017-09-17T09:27:47.676Z,15.57
2017-09-17T09:32:50.912Z,13.27
2017-09-17T09:37:54.938Z,13.77
2017-09-17T09:42:58.161Z,14.87
2017-09-17T09:48:02.159Z,13.70
2017-09-17T09:53:05.596Z,12.70
2017-09-17T09:58:10.856Z,13.30
2017-09-17T10:03:14.240Z,11.73
2017-09-17T10:08:17.536Z,12.47
2017-09-17T10:13:20.770Z,11.80
2017-09-17T10:18:24.858Z,10.07
2017-09-17T10:23:28.081Z,13.63
2017-09-17T10:28:31.249Z,10.90
2017-09-17T10:33:34.477Z,10.17
2017-09-17T10:38:37.691Z,9.20
2017-09-17T10:43:41.112Z,9.30
2017-09-17T10:48:44.344Z,9.17
2017-09-17T10:53:48.354Z,8.83
2017-09-17T10:58:51.672Z,9.47
2017-09-17T11:03:55.669Z,8.10
2017-09-17T11:08:58.926Z,9.10
2017-09-17T11:14:02.138Z,7.50
2017-09-17T11:19:05.421Z,8.57
2017-09-17T11:24:09.418Z,9.10
2017-09-17T11:29:12.622Z,7.93
2017-09-17T11:34:15.841Z,7.63
2017-09-17T11:39:19.079Z,6.37
2017-09-17T11:44:23.048Z,5.70
2017-09-17T11:49:26.261Z,6.50
2017-09-17T11:54:29.473Z,5.77
2017-09-17T11:59:32.677Z,5.30
2017-09-17T12:04:35.962Z,5.20
2017-09-17T12:09:39.194Z,3.67
2017-09-17T12:14:42.485Z,5.00
2017-09-17T12:19:45.731Z,4.50
2017-09-17T12:24:48.953Z,5.47
2017-09-17T12:29:53.022Z,5.27
2017-09-17T12:34:56.262Z,5.27
2017-09-17T12:39:59.520Z,4.23
2017-09-17T12:45:02.799Z,4.37
2017-09-17T12:50:06.810Z,3.20
2017-09-17T12:55:10.085Z,3.80
2017-09-17T13:00:13.287Z,3.83
2017-09-17T13:05:16.510Z,3.70
2017-09-17T13:10:19.794Z,3.47
2017-09-17T13:15:23.017Z,3.10
2017-09-17T13:20:26.236Z,3.73
2017-09-17T13:25:29.521Z,3.80
2017-09-17T13:30:32.733Z,3.00
2017-09-17T13:35:35.958Z,3.20
2017-09-17T13:40:39.188Z,4.20
2017-09-17T13:45:42.414Z,3.83
2017-09-17T13:50:46.433Z,4.13
2017-09-17T13:55:50.428Z,3.67
2017-09-17T14:00:53.654Z,3.27
2017-09-17T14:05:59.422Z,3.30
2017-09-17T14:11:02.645Z,3.10
2017-09-17T14:16:06.633Z,3.20
2017-09-17T14:21:09.858Z,3.10
2017-09-17T14:26:13.074Z,2.20
2017-09-17T14:31:17.200Z,2.37
2017-09-17T14:36:20.437Z,1.80
2017-09-17T14:41:23.681Z,2.20
2017-09-17T14:46:26.884Z,2.33
2017-09-17T14:51:30.147Z,1.97
2017-09-17T14:56:33.381Z,2.30
2017-09-17T15:01:37.135Z,2.47
2017-09-17T15:06:40.848Z,3.87
2017-09-17T15:11:44.063Z,7.83
2017-09-17T15:16:47.335Z,5.87
2017-09-17T15:21:50.557Z,2.70
2017-09-17T15:26:53.777Z,2.03
2017-09-17T15:31:57.009Z,2.37
2017-09-17T15:37:01.111Z,1.90
2017-09-17T15:42:04.389Z,1.70
2017-09-17T15:47:07.655Z,1.83
2017-09-17T15:52:10.872Z,2.07
2017-09-17T15:57:15.008Z,1.73
2017-09-17T16:02:19.001Z,1.60
2017-09-17T16:07:22.251Z,1.30
2017-09-17T16:12:26.377Z,1.20
2017-09-17T16:17:29.656Z,1.43
2017-09-17T16:22:33.061Z,1.10
2017-09-17T16:27:36.737Z,1.30
2017-09-17T16:32:40.797Z,0.80
2017-09-17T16:37:44.133Z,1.83
2017-09-17T16:42:48.128Z,1.33
2017-09-17T16:47:51.439Z,2.17
2017-09-17T16:52:54.651Z,1.53
2017-09-17T16:57:57.975Z,4.97
2017-09-17T17:03:01.969Z,2.10
2017-09-17T17:08:05.239Z,1.87
2017-09-17T17:13:08.496Z,1.47
2017-09-17T17:18:11.734Z,1.67
2017-09-17T17:23:15.783Z,1.70
2017-09-17T17:28:19.053Z,1.87
2017-09-17T17:33:23.082Z,1.67
2017-09-17T17:38:27.208Z,2.30
2017-09-17T17:43:31.194Z,2.80
2017-09-17T17:48:34.432Z,2.00
2017-09-17T17:53:37.698Z,1.67
2017-09-17T17:58:40.928Z,2.30
2017-09-17T18:03:44.197Z,2.27
2017-09-17T18:08:47.416Z,2.83
2017-09-17T18:13:50.785Z,5.57
2017-09-17T18:18:54.926Z,4.40
2017-09-17T18:23:58.320Z,3.87
2017-09-17T18:29:02.304Z,3.13
2017-09-17T18:34:05.546Z,3.57
2017-09-17T18:39:08.771Z,3.78
2017-09-17T18:44:12.740Z,4.03
2017-09-17T18:49:15.967Z,5.40
2017-09-17T18:54:19.203Z,5.30
2017-09-17T18:59:23.266Z,4.47
2017-09-17T19:04:26.466Z,4.63
2017-09-17T19:09:29.786Z,4.50
2017-09-17T19:14:33.032Z,5.23
2017-09-17T19:19:36.231Z,6.33
2017-09-17T19:24:39.463Z,5.80
2017-09-17T19:29:42.733Z,5.80
2017-09-17T19:34:45.945Z,5.83
2017-09-17T19:39:49.174Z,5.90
2017-09-17T19:44:53.218Z,5.63
2017-09-17T19:49:57.206Z,5.40
2017-09-17T19:55:00.429Z,7.80
2017-09-17T20:00:03.641Z,5.77
2017-09-17T20:05:07.619Z,6.57
2017-09-17T20:10:10.868Z,6.90
2017-09-17T20:15:14.107Z,5.93
2017-09-17T20:20:17.330Z,7.07
2017-09-17T20:25:20.527Z,6.60
2017-09-17T20:30:23.868Z,5.37
2017-09-17T20:35:27.054Z,6.17
2017-09-17T20:40:30.261Z,6.77
2017-09-17T20:45:33.463Z,6.90
2017-09-17T20:50:36.785Z,7.17
2017-09-17T20:55:39.993Z,7.30
2017-09-17T21:00:43.215Z,7.57
2017-09-17T21:05:46.431Z,5.90
2017-09-17T21:10:49.661Z,7.03
2017-09-17T21:15:53.633Z,6.40
2017-09-17T21:20:56.851Z,7.10
2017-09-17T21:26:00.054Z,7.03
2017-09-17T21:31:03.249Z,7.37
2017-09-17T21:36:06.448Z,6.20
2017-09-17T21:41:09.670Z,9.20
2017-09-17T21:46:12.939Z,7.63
2017-09-17T21:51:16.170Z,7.43
2017-09-17T21:56:19.380Z,7.70
2017-09-17T22:01:22.593Z,6.40
2017-09-17T22:06:25.799Z,7.33
2017-09-17T22:11:29.023Z,6.80
2017-09-17T22:16:32.213Z,7.33
2017-09-17T22:21:35.412Z,6.18
2017-09-17T22:26:38.661Z,5.80
2017-09-17T22:31:41.892Z,6.50
2017-09-17T22:36:45.972Z,6.03
2017-09-17T22:41:49.252Z,5.70
2017-09-17T22:46:52.461Z,7.03
2017-09-17T22:51:55.786Z,6.10
2017-09-17T22:56:59.005Z,5.80
2017-09-17T23:02:02.212Z,6.27
2017-09-17T23:07:05.427Z,6.60
2017-09-17T23:12:08.637Z,6.00
2017-09-17T23:17:11.841Z,6.67
2017-09-17T23:22:15.106Z,5.20
2017-09-17T23:27:18.311Z,7.00
2017-09-17T23:32:21.514Z,5.20
2017-09-17T23:37:24.719Z,5.70
2017-09-17T23:42:27.918Z,6.20
2017-09-17T23:47:31.919Z,5.93
2017-09-17T23:52:35.882Z,5.90
2017-09-17T23:57:39.141Z,5.70
